createdAt,value
2019-05-01T00:02:09.865Z,10.20
2019-05-01T00:04:41.214Z,10.20
2019-05-01T00:07:27.307Z,10.20
2019-05-01T00:09:57.019Z,10.10
2019-05-01T00:12:26.727Z,10.20
2019-05-01T00:14:56.411Z,10.30
2019-05-01T00:17:27.780Z,10.30
2019-05-01T00:19:57.498Z,10.30
2019-05-01T00:22:28.334Z,10.20
2019-05-01T00:24:58.042Z,10.20
2019-05-01T00:27:27.728Z,10.20
2019-05-01T00:29:57.464Z,10.30
2019-05-01T00:32:27.147Z,10.20
2019-05-01T00:34:56.883Z,10.10
2019-05-01T00:37:26.491Z,9.90
2019-05-01T00:39:56.103Z,9.80
2019-05-01T00:42:25.782Z,9.80
2019-05-01T00:44:55.520Z,9.60
2019-05-01T00:47:28.045Z,9.60
2019-05-01T00:49:57.705Z,9.60
2019-05-01T00:52:27.415Z,9.40
2019-05-01T00:55:15.176Z,9.30
2019-05-01T00:57:53.154Z,9.30
2019-05-01T01:00:25.396Z,9.20
2019-05-01T01:02:55.132Z,9.10
2019-05-01T01:05:24.740Z,9.10
2019-05-01T01:07:54.423Z,9.10
2019-05-01T01:10:24.161Z,9.10
2019-05-01T01:12:53.873Z,9.10
2019-05-01T01:15:23.579Z,9.00
2019-05-01T01:17:53.289Z,9.00
2019-05-01T01:20:23.001Z,8.90
2019-05-01T01:22:52.713Z,8.80
2019-05-01T01:25:23.399Z,9.00
2019-05-01T01:27:53.028Z,8.80
2019-05-01T01:30:24.690Z,8.80
2019-05-01T01:32:54.009Z,8.70
2019-05-01T01:35:23.696Z,8.60
2019-05-01T01:37:54.400Z,8.50
2019-05-01T01:40:24.065Z,8.50
2019-05-01T01:42:55.282Z,8.50
2019-05-01T01:45:26.553Z,8.40
2019-05-01T01:48:17.529Z,8.50
2019-05-01T01:50:47.177Z,8.70
2019-05-01T01:53:19.007Z,8.60
2019-05-01T01:55:48.714Z,8.40
2019-05-01T01:58:20.185Z,8.20
2019-05-01T02:01:09.554Z,8.10
2019-05-01T02:03:45.110Z,8.10
2019-05-01T02:06:14.820Z,8.00
2019-05-01T02:08:56.020Z,8.20
2019-05-01T02:11:15.851Z,8.10
2019-05-01T02:13:45.591Z,8.00
2019-05-01T02:16:15.300Z,8.00
2019-05-01T02:18:44.983Z,7.90
2019-05-01T02:21:14.692Z,8.00
2019-05-01T02:23:44.429Z,7.90
2019-05-01T02:26:17.479Z,7.80
2019-05-01T02:29:05.327Z,7.60
2019-05-01T02:31:36.572Z,7.50
2019-05-01T02:34:06.208Z,7.50
2019-05-01T02:36:35.923Z,7.50
2019-05-01T02:39:06.907Z,7.40
2019-05-01T02:41:41.086Z,7.40
2019-05-01T02:44:11.166Z,7.60
2019-05-01T02:46:42.709Z,7.70
2019-05-01T02:49:30.528Z,7.70
2019-05-01T02:52:00.265Z,7.70
2019-05-01T02:54:29.947Z,7.60
2019-05-01T02:57:02.776Z,7.50
2019-05-01T02:59:34.295Z,7.40
2019-05-01T03:02:03.919Z,7.20
2019-05-01T03:04:34.623Z,7.30
2019-05-01T03:07:05.077Z,7.30
2019-05-01T03:09:34.796Z,7.20
2019-05-01T03:12:04.602Z,7.20
2019-05-01T03:14:35.718Z,7.30
2019-05-01T03:17:06.996Z,7.30
2019-05-01T03:19:38.238Z,7.30
2019-05-01T03:22:09.456Z,7.50
2019-05-01T03:24:39.807Z,7.50
2019-05-01T03:27:09.491Z,7.50
2019-05-01T03:29:39.198Z,7.40
2019-05-01T03:32:19.258Z,7.30
2019-05-01T03:34:42.030Z,7.30
2019-05-01T03:37:11.635Z,7.30
2019-05-01T03:39:41.346Z,7.30
2019-05-01T03:42:11.028Z,7.30
2019-05-01T03:44:42.455Z,7.20
2019-05-01T03:47:12.216Z,7.10
2019-05-01T03:49:42.003Z,7.00
2019-05-01T03:52:12.661Z,6.90
2019-05-01T03:54:42.375Z,6.90
2019-05-01T03:57:12.789Z,6.80
2019-05-01T03:59:42.814Z,6.90
2019-05-01T04:02:34.397Z,6.80
2019-05-01T04:05:04.801Z,6.80
2019-05-01T04:07:36.376Z,6.80
2019-05-01T04:10:07.446Z,6.80
2019-05-01T04:12:37.174Z,6.80
2019-05-01T04:15:06.893Z,6.90
2019-05-01T04:17:38.126Z,7.00
2019-05-01T04:20:07.836Z,7.00
2019-05-01T04:22:37.548Z,7.00
2019-05-01T04:25:07.360Z,7.00
2019-05-01T04:27:38.605Z,7.00
2019-05-01T04:30:10.060Z,7.10
2019-05-01T04:32:52.006Z,7.30
2019-05-01T04:35:21.841Z,7.60
2019-05-01T04:37:51.856Z,7.60
2019-05-01T04:40:21.567Z,7.50
2019-05-01T04:42:51.306Z,7.40
2019-05-01T04:45:22.012Z,7.30
2019-05-01T04:47:51.619Z,7.30
2019-05-01T04:50:21.362Z,7.40
2019-05-01T04:52:51.143Z,7.40
2019-05-01T04:55:23.513Z,7.60
2019-05-01T04:57:52.125Z,7.70
2019-05-01T05:00:22.910Z,7.70
2019-05-01T05:03:04.421Z,7.90
2019-05-01T05:05:25.555Z,8.00
2019-05-01T05:07:55.368Z,8.00
2019-05-01T05:10:25.077Z,8.00
2019-05-01T05:12:56.325Z,7.90
2019-05-01T05:15:27.547Z,7.90
2019-05-01T05:17:57.282Z,8.00
2019-05-01T05:20:27.971Z,8.00
2019-05-01T05:22:57.702Z,8.10
2019-05-01T05:25:28.541Z,8.10
2019-05-01T05:27:58.273Z,8.30
2019-05-01T05:30:27.984Z,8.30
2019-05-01T05:32:59.547Z,8.40
2019-05-01T05:35:29.117Z,8.40
2019-05-01T05:38:00.391Z,8.40
2019-05-01T05:40:31.608Z,8.50
2019-05-01T05:43:01.344Z,8.60
2019-05-01T05:45:31.055Z,8.70
2019-05-01T05:48:01.768Z,8.80
2019-05-01T05:50:50.751Z,8.90
2019-05-01T05:53:24.630Z,8.90
2019-05-01T05:55:56.149Z,9.00
2019-05-01T05:58:43.944Z,9.00
2019-05-01T06:01:24.482Z,9.10
2019-05-01T06:03:55.755Z,9.20
2019-05-01T06:06:32.226Z,9.20
2019-05-01T06:09:01.934Z,9.30
2019-05-01T06:11:50.999Z,9.30
2019-05-01T06:14:22.322Z,9.30
2019-05-01T06:16:54.077Z,9.30
2019-05-01T06:19:34.772Z,9.20
2019-05-01T06:22:22.608Z,9.20
2019-05-01T06:25:21.625Z,9.30
2019-05-01T06:27:44.723Z,9.40
2019-05-01T06:30:13.912Z,9.50
2019-05-01T06:32:43.564Z,9.70
2019-05-01T06:35:13.275Z,9.70
2019-05-01T06:37:55.884Z,9.80
2019-05-01T06:40:42.802Z,10.00
2019-05-01T06:43:20.195Z,10.20
2019-05-01T06:45:51.670Z,10.40
2019-05-01T06:48:29.780Z,10.30
2019-05-01T06:51:18.753Z,10.40
2019-05-01T06:53:48.728Z,10.40
2019-05-01T06:56:18.411Z,10.60
2019-05-01T06:58:51.103Z,10.70
2019-05-01T07:01:23.850Z,10.60
2019-05-01T07:04:03.395Z,10.60
2019-05-01T07:06:25.991Z,10.70
2019-05-01T07:08:53.339Z,10.60
2019-05-01T07:11:23.089Z,10.70
2019-05-01T07:13:55.566Z,10.70
2019-05-01T07:16:24.081Z,10.70
2019-05-01T07:18:57.992Z,10.80
2019-05-01T07:21:32.309Z,11.00
2019-05-01T07:23:57.949Z,11.00
2019-05-01T07:26:27.659Z,11.30
2019-05-01T07:29:09.772Z,11.40
2019-05-01T07:31:38.297Z,11.80
2019-05-01T07:34:16.401Z,12.00
2019-05-01T07:36:39.296Z,12.10
2019-05-01T07:39:09.892Z,12.20
2019-05-01T07:41:41.327Z,12.40
2019-05-01T07:44:29.966Z,12.60
2019-05-01T07:47:03.593Z,12.50
2019-05-01T07:49:43.337Z,12.30
2019-05-01T07:52:17.181Z,12.30
2019-05-01T07:54:47.146Z,12.30
2019-05-01T07:57:16.606Z,12.30
2019-05-01T07:59:46.318Z,12.40
2019-05-01T08:02:16.028Z,12.70
2019-05-01T08:04:46.634Z,12.90
2019-05-01T08:07:16.343Z,12.90
2019-05-01T08:09:50.191Z,13.10
2019-05-01T08:12:18.911Z,13.10
2019-05-01T08:14:52.509Z,13.30
2019-05-01T08:17:21.559Z,13.20
2019-05-01T08:19:54.007Z,13.20
2019-05-01T08:22:26.301Z,13.20
2019-05-01T08:24:58.751Z,13.40
2019-05-01T08:27:44.358Z,13.60
2019-05-01T08:30:27.695Z,13.80
2019-05-01T08:33:14.693Z,13.80
2019-05-01T08:35:42.163Z,14.10
2019-05-01T08:38:11.847Z,14.40
2019-05-01T08:40:41.563Z,14.50
2019-05-01T08:43:13.781Z,14.40
2019-05-01T08:46:00.870Z,14.10
2019-05-01T08:48:35.727Z,14.30
2019-05-01T08:51:06.409Z,14.70
2019-05-01T08:53:36.141Z,15.00
2019-05-01T08:56:05.854Z,15.00
2019-05-01T08:58:36.533Z,15.00
2019-05-01T09:01:10.922Z,15.20
2019-05-01T09:03:38.056Z,15.40
2019-05-01T09:06:07.769Z,15.50
2019-05-01T09:08:37.476Z,15.60
2019-05-01T09:11:10.033Z,15.80
2019-05-01T09:13:39.661Z,16.10
2019-05-01T09:16:09.372Z,16.30
2019-05-01T09:18:39.056Z,16.30
2019-05-01T09:21:09.740Z,16.10
2019-05-01T09:23:39.500Z,16.00
2019-05-01T09:26:14.628Z,15.70
2019-05-01T09:28:44.902Z,15.60
2019-05-01T09:31:17.346Z,16.00
2019-05-01T09:33:47.069Z,16.20
2019-05-01T09:36:16.780Z,16.40
2019-05-01T09:38:49.883Z,16.60
2019-05-01T09:41:17.839Z,16.60
2019-05-01T09:43:48.524Z,16.50
2019-05-01T09:46:18.182Z,16.20
2019-05-01T09:48:48.198Z,15.80
2019-05-01T09:51:36.032Z,15.20
2019-05-01T09:54:09.756Z,15.40
2019-05-01T09:56:41.476Z,16.20
2019-05-01T09:59:12.577Z,16.50
2019-05-01T10:01:43.236Z,16.60
2019-05-01T10:04:13.959Z,16.90
2019-05-01T10:06:47.544Z,16.90
2019-05-01T10:09:16.723Z,16.20
2019-05-01T10:11:46.206Z,15.40
2019-05-01T10:14:15.920Z,15.20
2019-05-01T10:16:45.627Z,15.60
2019-05-01T10:19:15.311Z,15.70
2019-05-01T10:21:45.046Z,16.20
2019-05-01T10:24:14.754Z,16.60
2019-05-01T10:26:45.975Z,17.10
2019-05-01T10:29:29.309Z,17.00
2019-05-01T10:32:21.515Z,16.80
2019-05-01T10:34:57.241Z,17.00
2019-05-01T10:37:28.331Z,17.60
2019-05-01T10:40:00.344Z,18.00
2019-05-01T10:42:31.826Z,17.80
2019-05-01T10:45:01.487Z,17.90
2019-05-01T10:47:31.171Z,18.30
2019-05-01T10:50:00.883Z,18.30
2019-05-01T10:52:30.618Z,18.20
2019-05-01T10:55:00.330Z,18.10
2019-05-01T10:57:30.011Z,18.40
2019-05-01T10:59:59.748Z,19.10
2019-05-01T11:02:29.458Z,19.70
2019-05-01T11:04:59.169Z,20.30
2019-05-01T11:07:29.797Z,19.80
2019-05-01T11:09:59.482Z,20.90
2019-05-01T11:12:29.229Z,22.20
2019-05-01T11:14:58.932Z,22.60
2019-05-01T11:17:28.643Z,22.60
2019-05-01T11:19:58.350Z,22.70
2019-05-01T11:22:28.034Z,22.30
2019-05-01T11:24:57.743Z,22.10
2019-05-01T11:27:27.481Z,21.60
2019-05-01T11:29:57.191Z,21.40
2019-05-01T11:32:32.346Z,22.20
2019-05-01T11:35:19.012Z,22.70
2019-05-01T11:37:53.228Z,22.60
2019-05-01T11:40:27.139Z,23.00
2019-05-01T11:42:58.330Z,23.30
2019-05-01T11:45:28.016Z,23.10
2019-05-01T11:47:59.421Z,21.50
2019-05-01T11:50:29.047Z,20.20
2019-05-01T11:52:58.784Z,20.60
2019-05-01T11:55:28.467Z,21.10
2019-05-01T11:57:58.203Z,21.50
2019-05-01T12:00:27.812Z,22.30
2019-05-01T12:02:57.521Z,23.40
2019-05-01T12:05:27.231Z,23.40
2019-05-01T12:07:58.661Z,23.50
2019-05-01T12:10:28.290Z,22.60
2019-05-01T12:12:57.975Z,22.40
2019-05-01T12:15:27.711Z,24.20
2019-05-01T12:17:57.401Z,24.10
2019-05-01T12:20:27.132Z,23.60
2019-05-01T12:22:56.815Z,23.60
2019-05-01T12:25:26.557Z,24.70
2019-05-01T12:27:58.078Z,26.60
2019-05-01T12:30:27.814Z,25.40
2019-05-01T12:32:58.493Z,25.30
2019-05-01T12:35:28.261Z,25.50
2019-05-01T12:37:59.505Z,26.20
2019-05-01T12:40:29.215Z,25.90
2019-05-01T12:42:58.924Z,24.50
2019-05-01T12:45:28.608Z,23.20
2019-05-01T12:47:59.884Z,22.90
2019-05-01T12:50:29.597Z,22.90
2019-05-01T12:53:03.788Z,24.00
2019-05-01T12:55:51.412Z,23.70
2019-05-01T12:58:21.147Z,25.00
2019-05-01T13:00:52.413Z,25.30
2019-05-01T13:03:22.105Z,26.00
2019-05-01T13:05:52.758Z,26.40
2019-05-01T13:08:22.419Z,26.10
2019-05-01T13:10:52.126Z,25.80
2019-05-01T13:13:21.867Z,26.50
2019-05-01T13:15:51.547Z,26.20
2019-05-01T13:18:22.536Z,23.90
2019-05-01T13:20:52.299Z,23.30
2019-05-01T13:23:22.039Z,22.40
2019-05-01T13:25:53.179Z,23.50
2019-05-01T13:28:39.786Z,22.70
2019-05-01T13:31:20.045Z,21.90
2019-05-01T13:33:49.754Z,20.90
2019-05-01T13:36:19.438Z,22.00
2019-05-01T13:38:50.170Z,24.10
2019-05-01T13:41:22.755Z,25.30
2019-05-01T13:43:52.179Z,26.00
2019-05-01T13:46:21.889Z,27.10
2019-05-01T13:48:51.598Z,27.00
2019-05-01T13:51:21.309Z,27.00
2019-05-01T13:53:51.018Z,26.10
2019-05-01T13:56:21.668Z,25.40
2019-05-01T13:58:53.217Z,24.80
2019-05-01T14:01:23.120Z,24.20
2019-05-01T14:03:53.807Z,23.70
2019-05-01T14:06:23.563Z,23.10
2019-05-01T14:08:53.275Z,22.50
2019-05-01T14:11:22.955Z,23.10
2019-05-01T14:13:54.460Z,24.50
2019-05-01T14:16:24.247Z,26.30
2019-05-01T14:18:53.855Z,26.30
2019-05-01T14:21:25.101Z,25.50
2019-05-01T14:24:02.387Z,26.00
2019-05-01T14:26:33.301Z,26.00
2019-05-01T14:29:04.764Z,25.30
2019-05-01T14:31:35.382Z,25.30
2019-05-01T14:34:05.090Z,27.10
2019-05-01T14:36:34.829Z,28.10
2019-05-01T14:39:07.118Z,26.90
2019-05-01T14:41:39.338Z,27.20
2019-05-01T14:44:10.104Z,28.90
2019-05-01T14:46:39.786Z,28.00
2019-05-01T14:49:09.525Z,29.20
2019-05-01T14:51:39.258Z,28.20
2019-05-01T14:54:08.942Z,27.40
2019-05-01T14:56:38.655Z,26.90
2019-05-01T14:59:08.364Z,26.10
2019-05-01T15:01:38.078Z,25.40
2019-05-01T15:04:07.793Z,24.60
2019-05-01T15:06:37.495Z,23.80
2019-05-01T15:09:08.374Z,22.70
2019-05-01T15:11:39.372Z,21.80
2019-05-01T15:14:26.797Z,21.20
2019-05-01T15:17:09.200Z,21.20
2019-05-01T15:19:40.349Z,20.70
2019-05-01T15:22:10.059Z,20.40
2019-05-01T15:24:39.742Z,20.20
2019-05-01T15:27:09.455Z,20.20
2019-05-01T15:29:40.476Z,20.80
2019-05-01T15:32:11.195Z,20.70
2019-05-01T15:34:40.865Z,21.30
2019-05-01T15:37:11.536Z,22.50
2019-05-01T15:39:48.884Z,22.40
2019-05-01T15:42:34.978Z,23.10
2019-05-01T15:45:05.562Z,23.70
2019-05-01T15:47:35.321Z,24.10
2019-05-01T15:50:07.259Z,22.10
2019-05-01T15:52:36.166Z,21.50
2019-05-01T15:55:07.494Z,22.00
2019-05-01T15:57:37.206Z,22.40
2019-05-01T16:00:09.910Z,22.40
2019-05-01T16:02:40.135Z,22.70
2019-05-01T16:05:10.870Z,22.00
2019-05-01T16:07:40.578Z,21.70
2019-05-01T16:10:11.824Z,22.00
2019-05-01T16:12:43.071Z,21.90
2019-05-01T16:15:15.319Z,22.10
2019-05-01T16:17:45.022Z,22.20
2019-05-01T16:20:16.848Z,21.80
2019-05-01T16:22:46.084Z,21.90
2019-05-01T16:25:17.850Z,21.30
2019-05-01T16:27:47.579Z,21.20
2019-05-01T16:30:18.826Z,21.40
2019-05-01T16:32:48.534Z,20.80
2019-05-01T16:35:18.142Z,20.10
2019-05-01T16:37:48.827Z,19.70
2019-05-01T16:40:25.856Z,19.50
2019-05-01T16:42:55.538Z,19.80
2019-05-01T16:45:25.581Z,19.90
2019-05-01T16:47:55.293Z,19.70
2019-05-01T16:50:26.533Z,19.60
2019-05-01T16:52:56.250Z,20.00
2019-05-01T16:55:25.960Z,20.00
2019-05-01T16:57:56.641Z,19.90
2019-05-01T17:00:57.947Z,19.70
2019-05-01T17:03:47.186Z,19.60
2019-05-01T17:06:21.509Z,19.30
2019-05-01T17:08:55.515Z,18.60
2019-05-01T17:14:18.923Z,18.60
2019-05-01T17:16:48.611Z,18.50
2019-05-01T17:19:18.344Z,18.20
2019-05-01T17:21:48.053Z,18.00
2019-05-01T17:24:17.764Z,17.80
2019-05-01T17:26:48.439Z,17.80
2019-05-01T17:29:18.107Z,17.60
2019-05-01T17:31:47.791Z,17.40
2019-05-01T17:34:17.499Z,17.40
2019-05-01T17:36:47.206Z,17.30
2019-05-01T17:39:17.537Z,17.00
2019-05-01T17:41:47.273Z,16.80
2019-05-01T17:44:20.111Z,16.60
2019-05-01T17:46:50.049Z,16.40
2019-05-01T17:49:19.652Z,16.30
2019-05-01T17:51:49.361Z,16.10
2019-05-01T17:54:19.098Z,16.00
2019-05-01T17:56:53.854Z,15.90
2019-05-01T17:59:20.030Z,15.70
2019-05-01T18:01:53.860Z,15.60
2019-05-01T18:04:26.594Z,15.40
2019-05-01T18:06:56.351Z,15.30
2019-05-01T18:09:25.960Z,15.30
2019-05-01T18:11:56.677Z,15.10
2019-05-01T18:14:26.304Z,15.00
2019-05-01T18:16:56.012Z,14.90
2019-05-01T18:19:25.724Z,14.70
2019-05-01T18:21:56.941Z,14.60
2019-05-01T18:24:29.430Z,14.40
2019-05-01T18:27:07.651Z,14.30
2019-05-01T18:29:49.270Z,14.10
2019-05-01T18:32:20.562Z,14.00
2019-05-01T18:34:50.300Z,13.90
2019-05-01T18:37:31.273Z,13.70
2019-05-01T18:40:02.012Z,13.60
2019-05-01T18:42:31.717Z,13.50
2019-05-01T18:45:01.429Z,13.40
2019-05-01T18:47:31.215Z,13.40
2019-05-01T18:50:00.950Z,13.30
2019-05-01T18:52:30.659Z,13.30
2019-05-01T18:55:00.369Z,13.30
2019-05-01T18:57:30.156Z,13.20
2019-05-01T18:59:59.894Z,13.20
2019-05-01T19:02:29.679Z,13.20
2019-05-01T19:04:59.418Z,13.10
2019-05-01T19:07:29.125Z,13.10
2019-05-01T19:09:58.835Z,13.10
2019-05-01T19:12:31.180Z,13.10
2019-05-01T19:15:00.405Z,13.00
2019-05-01T19:17:33.004Z,13.00
2019-05-01T19:20:02.387Z,13.00
2019-05-01T19:22:33.504Z,13.00
2019-05-01T19:25:04.345Z,13.00
2019-05-01T19:27:34.050Z,12.90
2019-05-01T19:30:09.652Z,12.90
2019-05-01T19:32:39.538Z,13.00
2019-05-01T19:35:09.359Z,13.00
2019-05-01T19:37:40.085Z,12.90
2019-05-01T19:40:10.717Z,12.90
2019-05-01T19:42:40.427Z,13.00
2019-05-01T19:45:10.066Z,13.00
2019-05-01T19:47:39.748Z,12.90
2019-05-01T19:50:11.027Z,12.80
2019-05-01T19:52:40.806Z,12.80
2019-05-01T19:55:10.490Z,12.90
2019-05-01T19:57:40.223Z,12.70
2019-05-01T20:00:09.933Z,12.70
2019-05-01T20:02:40.566Z,12.50
2019-05-01T20:05:11.157Z,12.60
2019-05-01T20:07:41.291Z,12.50
2019-05-01T20:10:11.307Z,12.40
2019-05-01T20:12:41.940Z,12.30
2019-05-01T20:15:11.751Z,12.20
2019-05-01T20:17:41.489Z,12.00
2019-05-01T20:20:11.171Z,11.90
2019-05-01T20:22:42.839Z,12.00
2019-05-01T20:25:14.684Z,12.10
2019-05-01T20:27:47.745Z,12.10
2019-05-01T20:30:14.829Z,12.00
2019-05-01T20:32:44.538Z,12.10
2019-05-01T20:35:15.281Z,12.10
2019-05-01T20:37:50.843Z,12.00
2019-05-01T20:40:20.554Z,11.90
2019-05-01T20:42:50.339Z,11.80
2019-05-01T20:45:20.184Z,11.90
2019-05-01T20:47:49.888Z,11.80
2019-05-01T20:50:19.571Z,11.80
2019-05-01T20:52:49.308Z,11.80
2019-05-01T20:55:18.993Z,11.70
2019-05-01T20:57:49.835Z,11.70
2019-05-01T21:00:20.281Z,11.60
2019-05-01T21:02:49.991Z,11.60
2019-05-01T21:05:21.210Z,11.60
2019-05-01T21:07:56.577Z,11.50
2019-05-01T21:10:25.546Z,11.50
2019-05-01T21:12:56.719Z,11.40
2019-05-01T21:15:26.809Z,11.40
2019-05-01T21:17:56.751Z,11.20
2019-05-01T21:20:26.461Z,11.10
2019-05-01T21:22:56.172Z,11.10
2019-05-01T21:25:25.882Z,11.20
2019-05-01T21:27:55.591Z,11.30
2019-05-01T21:30:25.301Z,11.30
2019-05-01T21:32:58.571Z,11.30
2019-05-01T21:35:26.260Z,11.20
2019-05-01T21:37:55.969Z,11.30
2019-05-01T21:40:37.721Z,11.30
2019-05-01T21:42:57.026Z,11.20
2019-05-01T21:45:26.739Z,11.10
2019-05-01T21:47:56.450Z,11.10
2019-05-01T21:50:26.544Z,11.00
2019-05-01T21:52:58.029Z,11.00
2019-05-01T21:55:30.262Z,11.00
2019-05-01T21:57:58.947Z,11.00
2019-05-01T22:00:31.122Z,11.00
2019-05-01T22:03:02.490Z,11.00
2019-05-01T22:05:34.724Z,11.00
2019-05-01T22:08:05.094Z,10.90
2019-05-01T22:10:35.853Z,10.90
2019-05-01T22:13:05.528Z,10.80
2019-05-01T22:15:36.747Z,10.80
2019-05-01T22:18:10.760Z,10.80
2019-05-01T22:20:58.416Z,10.60
2019-05-01T22:23:32.837Z,10.60
2019-05-01T22:26:04.545Z,10.50
2019-05-01T22:28:41.471Z,10.50
2019-05-01T22:31:16.731Z,10.50
2019-05-01T22:33:48.674Z,10.40
2019-05-01T22:36:18.487Z,10.30
2019-05-01T22:38:48.095Z,10.20
2019-05-01T22:41:17.778Z,10.10
2019-05-01T22:43:47.387Z,10.20
2019-05-01T22:46:18.658Z,10.20
2019-05-01T22:48:48.267Z,10.10
2019-05-01T22:51:21.438Z,10.00
2019-05-01T22:53:52.399Z,10.00
2019-05-01T22:56:22.079Z,10.00
2019-05-01T22:58:53.560Z,9.90
2019-05-01T23:01:23.268Z,9.90
2019-05-01T23:03:55.451Z,9.80
2019-05-01T23:06:25.018Z,9.90
2019-05-01T23:08:54.729Z,9.90
2019-05-01T23:11:26.002Z,9.80
2019-05-01T23:13:55.709Z,9.80
2019-05-01T23:16:28.808Z,9.80
2019-05-01T23:18:59.947Z,9.70
2019-05-01T23:21:29.522Z,9.70
2019-05-01T23:24:01.908Z,9.60
2019-05-01T23:26:30.506Z,9.60
2019-05-01T23:29:00.216Z,9.60
2019-05-01T23:31:30.541Z,9.60
2019-05-01T23:34:00.252Z,9.50
2019-05-01T23:36:30.941Z,9.50
2019-05-01T23:39:01.697Z,9.50
2019-05-01T23:41:45.304Z,9.50
2019-05-01T23:44:05.427Z,9.50
2019-05-01T23:46:35.122Z,9.40
2019-05-01T23:49:05.815Z,9.40
2019-05-01T23:51:35.493Z,9.30
2019-05-01T23:54:05.175Z,9.20
2019-05-01T23:56:35.277Z,9.20
2019-05-01T23:59:06.026Z,9.20
